createdAt,value
2023-05-13T00:00:55.293Z,13.40
2023-05-13T00:03:23.684Z,13.64
2023-05-13T00:05:51.360Z,13.75
2023-05-13T00:08:20.146Z,13.44
2023-05-13T00:10:47.973Z,13.77
2023-05-13T00:13:15.438Z,13.94
2023-05-13T00:15:42.864Z,13.61
2023-05-13T00:18:10.594Z,13.37
2023-05-13T00:20:38.040Z,13.66
2023-05-13T00:23:05.503Z,13.36
2023-05-13T00:25:33.542Z,13.61
2023-05-13T00:28:01.085Z,13.71
2023-05-13T00:30:28.566Z,13.88
2023-05-13T00:32:56.294Z,13.77
2023-05-13T00:35:23.875Z,13.64
2023-05-13T00:37:51.334Z,13.23
2023-05-13T00:40:24.311Z,13.63
2023-05-13T00:42:52.394Z,13.64
2023-05-13T00:45:20.755Z,13.55
2023-05-13T00:47:49.595Z,13.74
2023-05-13T00:50:17.101Z,13.58
2023-05-13T00:52:44.922Z,13.72
2023-05-13T00:55:12.361Z,13.90
2023-05-13T00:57:42.602Z,13.68
2023-05-13T01:00:10.993Z,13.96
2023-05-13T01:02:43.018Z,14.15
2023-05-13T01:05:29.835Z,14.02
2023-05-13T01:08:03.265Z,13.80
2023-05-13T01:10:33.583Z,13.67
2023-05-13T01:13:04.788Z,13.35
2023-05-13T01:15:33.140Z,13.54
2023-05-13T01:18:13.788Z,13.57
2023-05-13T01:20:42.596Z,13.65
2023-05-13T01:23:13.278Z,13.77
2023-05-13T01:25:41.289Z,13.84
2023-05-13T01:28:09.811Z,13.89
2023-05-13T01:30:37.442Z,13.87
2023-05-13T01:33:05.585Z,14.01
2023-05-13T01:35:33.687Z,14.13
2023-05-13T01:38:02.786Z,13.91
2023-05-13T01:40:33.111Z,13.88
2023-05-13T01:43:01.371Z,13.85
2023-05-13T01:45:30.110Z,14.20
2023-05-13T01:47:58.391Z,14.29
2023-05-13T01:50:26.453Z,14.35
2023-05-13T01:52:54.066Z,14.14
2023-05-13T01:55:22.428Z,13.92
2023-05-13T01:57:50.037Z,13.65
2023-05-13T02:00:18.801Z,14.05
2023-05-13T02:02:50.242Z,13.94
2023-05-13T02:05:17.825Z,13.78
2023-05-13T02:07:45.308Z,14.17
2023-05-13T02:10:13.182Z,14.27
2023-05-13T02:12:40.681Z,13.80
2023-05-13T02:15:08.697Z,14.06
2023-05-13T02:17:36.418Z,13.79
2023-05-13T02:20:04.421Z,13.76
2023-05-13T02:22:32.443Z,13.56
2023-05-13T02:24:59.821Z,13.57
2023-05-13T02:27:27.279Z,13.15
2023-05-13T02:29:55.078Z,13.27
2023-05-13T02:32:22.613Z,13.54
2023-05-13T02:34:50.297Z,13.53
2023-05-13T02:37:18.096Z,13.79
2023-05-13T02:39:45.975Z,13.92
2023-05-13T02:42:15.292Z,13.92
2023-05-13T02:44:42.988Z,13.86
2023-05-13T02:47:12.262Z,13.73
2023-05-13T02:49:39.937Z,13.48
2023-05-13T02:52:07.713Z,13.59
2023-05-13T02:54:35.490Z,13.74
2023-05-13T02:57:03.384Z,13.81
2023-05-13T02:59:31.259Z,13.53
2023-05-13T03:01:58.710Z,13.25
2023-05-13T03:04:26.153Z,13.26
2023-05-13T03:06:53.918Z,13.50
2023-05-13T03:09:21.290Z,13.66
2023-05-13T03:11:48.897Z,13.53
2023-05-13T03:14:16.711Z,13.57
2023-05-13T03:16:44.999Z,13.58
2023-05-13T03:19:13.108Z,13.32
2023-05-13T03:21:41.115Z,13.48
2023-05-13T03:24:08.944Z,13.19
2023-05-13T03:26:36.435Z,13.36
2023-05-13T03:29:04.149Z,13.52
2023-05-13T03:31:32.294Z,13.54
2023-05-13T03:34:00.268Z,13.49
2023-05-13T03:36:29.135Z,13.56
2023-05-13T03:38:56.555Z,13.84
2023-05-13T03:41:24.018Z,13.73
2023-05-13T03:43:52.042Z,13.78
2023-05-13T03:46:19.701Z,13.55
2023-05-13T03:48:48.129Z,13.69
2023-05-13T03:51:16.003Z,13.75
2023-05-13T03:53:43.540Z,13.52
2023-05-13T03:56:11.057Z,13.64
2023-05-13T03:58:38.957Z,13.30
2023-05-13T04:01:07.253Z,13.13
2023-05-13T04:03:35.140Z,13.51
2023-05-13T04:06:03.114Z,13.45
2023-05-13T04:08:30.892Z,13.39
2023-05-13T04:10:58.612Z,13.54
2023-05-13T04:13:26.673Z,13.77
2023-05-13T04:15:55.427Z,13.84
2023-05-13T04:18:23.264Z,13.70
2023-05-13T04:20:50.741Z,13.40
2023-05-13T04:23:18.185Z,13.37
2023-05-13T04:25:53.262Z,13.46
2023-05-13T04:28:20.949Z,13.71
2023-05-13T04:30:48.766Z,13.91
2023-05-13T04:33:16.837Z,13.94
2023-05-13T04:35:44.501Z,13.94
2023-05-13T04:38:12.615Z,13.77
2023-05-13T04:40:40.061Z,13.76
2023-05-13T04:43:07.702Z,13.60
2023-05-13T04:45:37.094Z,13.66
2023-05-13T04:48:06.252Z,13.62
2023-05-13T04:50:33.775Z,13.36
2023-05-13T04:53:02.254Z,13.55
2023-05-13T04:55:29.821Z,13.43
2023-05-13T04:57:57.346Z,13.37
2023-05-13T05:00:25.241Z,13.68
2023-05-13T05:02:52.829Z,13.73
2023-05-13T05:05:20.493Z,13.79
2023-05-13T05:07:48.229Z,13.85
2023-05-13T05:10:15.744Z,13.43
2023-05-13T05:12:43.510Z,13.62
2023-05-13T05:15:15.831Z,13.50
2023-05-13T05:17:44.487Z,13.55
2023-05-13T05:20:13.364Z,13.38
2023-05-13T05:22:42.197Z,12.93
2023-05-13T05:25:10.822Z,13.03
2023-05-13T05:27:38.680Z,13.22
2023-05-13T05:30:07.116Z,13.24
2023-05-13T05:32:35.466Z,13.01
2023-05-13T05:35:04.051Z,13.00
2023-05-13T05:37:31.931Z,13.03
2023-05-13T05:39:59.495Z,12.92
2023-05-13T05:42:27.823Z,12.73
2023-05-13T05:44:55.621Z,12.69
2023-05-13T05:47:23.142Z,12.37
2023-05-13T05:49:51.031Z,12.33
2023-05-13T05:52:19.212Z,12.31
2023-05-13T05:54:46.806Z,12.10
2023-05-13T05:57:14.765Z,12.17
2023-05-13T05:59:42.186Z,12.56
2023-05-13T06:02:09.711Z,12.66
2023-05-13T06:04:37.562Z,12.18
2023-05-13T06:07:05.314Z,12.08
2023-05-13T06:09:33.350Z,12.59
2023-05-13T06:12:01.199Z,12.90
2023-05-13T06:14:29.434Z,12.97
2023-05-13T06:16:56.904Z,12.89
2023-05-13T06:19:24.615Z,12.77
2023-05-13T06:21:52.038Z,12.89
2023-05-13T06:24:19.502Z,13.06
2023-05-13T06:26:47.764Z,12.97
2023-05-13T06:29:15.209Z,12.69
2023-05-13T06:31:42.727Z,12.63
2023-05-13T06:34:16.445Z,12.73
2023-05-13T06:36:44.180Z,12.88
2023-05-13T06:39:12.537Z,12.81
2023-05-13T06:41:41.004Z,12.96
2023-05-13T06:44:08.647Z,13.10
2023-05-13T06:46:39.401Z,13.15
2023-05-13T06:49:06.919Z,12.92
2023-05-13T06:51:34.974Z,12.99
2023-05-13T06:54:02.692Z,12.88
2023-05-13T06:56:30.411Z,12.88
2023-05-13T06:58:57.905Z,12.25
2023-05-13T07:01:26.219Z,12.65
2023-05-13T07:03:54.669Z,12.58
2023-05-13T07:06:22.325Z,12.52
2023-05-13T07:08:50.038Z,12.05
2023-05-13T07:11:17.435Z,12.44
2023-05-13T07:13:45.185Z,13.01
2023-05-13T07:16:13.922Z,12.79
2023-05-13T07:18:41.452Z,12.83
2023-05-13T07:21:08.991Z,12.70
2023-05-13T07:23:36.775Z,13.11
2023-05-13T07:26:04.404Z,12.98
2023-05-13T07:28:31.901Z,12.78
2023-05-13T07:30:59.915Z,13.10
2023-05-13T07:33:27.966Z,13.26
2023-05-13T07:35:55.377Z,13.41
2023-05-13T07:38:23.400Z,13.57
2023-05-13T07:40:50.918Z,13.32
2023-05-13T07:43:23.792Z,12.58
2023-05-13T07:45:51.647Z,12.95
2023-05-13T07:48:19.562Z,13.12
2023-05-13T07:50:47.210Z,13.62
2023-05-13T07:53:15.493Z,13.58
2023-05-13T07:55:43.993Z,13.88
2023-05-13T07:58:11.475Z,13.46
2023-05-13T08:00:39.437Z,13.61
2023-05-13T08:03:07.593Z,13.29
2023-05-13T08:05:35.235Z,13.59
2023-05-13T08:08:03.904Z,13.26
2023-05-13T08:10:31.718Z,13.19
2023-05-13T08:13:01.003Z,13.38
2023-05-13T08:15:28.499Z,13.51
2023-05-13T08:17:56.314Z,13.39
2023-05-13T08:20:29.867Z,13.67
2023-05-13T08:22:58.450Z,13.69
2023-05-13T08:25:25.965Z,13.30
2023-05-13T08:27:53.621Z,13.34
2023-05-13T08:30:21.411Z,13.74
2023-05-13T08:32:48.917Z,13.71
2023-05-13T08:35:16.489Z,13.57
2023-05-13T08:37:44.254Z,13.55
2023-05-13T08:40:11.963Z,13.31
2023-05-13T08:42:42.521Z,13.18
2023-05-13T08:45:11.168Z,12.97
2023-05-13T08:47:51.287Z,13.49
2023-05-13T08:50:20.120Z,13.54
2023-05-13T08:52:48.015Z,13.13
2023-05-13T08:55:15.920Z,13.61
2023-05-13T08:57:43.619Z,13.38
2023-05-13T09:00:11.849Z,13.51
2023-05-13T09:02:39.457Z,13.32
2023-05-13T09:05:08.708Z,13.42
2023-05-13T09:07:37.336Z,13.72
2023-05-13T09:10:06.275Z,13.73
2023-05-13T09:12:51.866Z,13.56
2023-05-13T09:15:21.888Z,13.72
2023-05-13T09:17:53.341Z,13.57
2023-05-13T09:20:21.775Z,13.49
2023-05-13T09:22:51.799Z,13.58
2023-05-13T09:25:21.204Z,14.13
2023-05-13T09:27:51.914Z,14.03
2023-05-13T09:30:20.904Z,13.72
2023-05-13T09:33:09.201Z,13.87
2023-05-13T09:35:39.306Z,13.99
2023-05-13T09:38:20.043Z,14.13
2023-05-13T09:40:58.112Z,13.94
2023-05-13T09:43:27.849Z,13.90
2023-05-13T09:45:56.818Z,13.83
2023-05-13T09:48:29.576Z,13.97
2023-05-13T09:51:00.168Z,14.33
2023-05-13T09:53:28.511Z,14.36
2023-05-13T09:55:58.756Z,13.85
2023-05-13T09:58:30.945Z,14.10
2023-05-13T10:00:58.788Z,14.36
2023-05-13T10:03:28.699Z,14.44
2023-05-13T10:05:57.194Z,14.81
2023-05-13T10:08:25.030Z,14.71
2023-05-13T10:10:55.592Z,14.79
2023-05-13T10:13:24.830Z,14.77
2023-05-13T10:15:54.638Z,14.61
2023-05-13T10:18:23.960Z,14.70
2023-05-13T10:20:54.912Z,14.10
2023-05-13T10:23:24.460Z,14.47
2023-05-13T10:25:54.236Z,14.78
2023-05-13T10:28:22.610Z,14.76
2023-05-13T10:30:53.858Z,14.58
2023-05-13T10:33:21.870Z,14.98
2023-05-13T10:35:58.777Z,14.64
2023-05-13T10:39:00.714Z,14.93
2023-05-13T10:42:22.551Z,14.92
2023-05-13T10:44:54.698Z,14.63
2023-05-13T10:47:22.792Z,14.29
2023-05-13T10:49:52.280Z,14.42
2023-05-13T10:52:20.153Z,14.84
2023-05-13T10:55:04.730Z,14.28
2023-05-13T10:57:38.559Z,14.65
2023-05-13T11:00:18.024Z,14.70
2023-05-13T11:02:45.905Z,14.96
2023-05-13T11:05:21.188Z,14.64
2023-05-13T11:07:56.566Z,14.82
2023-05-13T11:10:30.072Z,15.07
2023-05-13T11:13:35.627Z,15.19
2023-05-13T11:16:06.227Z,14.77
2023-05-13T11:18:35.049Z,14.70
2023-05-13T11:21:07.061Z,14.75
2023-05-13T11:23:53.232Z,14.69
2023-05-13T11:26:21.541Z,15.13
2023-05-13T11:29:04.047Z,15.23
2023-05-13T11:31:53.184Z,14.86
2023-05-13T11:34:20.757Z,15.25
2023-05-13T11:37:08.932Z,14.96
2023-05-13T11:39:38.733Z,15.09
2023-05-13T11:42:10.349Z,15.04
2023-05-13T11:44:45.562Z,14.97
2023-05-13T11:47:13.359Z,15.21
2023-05-13T11:49:40.766Z,15.29
2023-05-13T11:52:16.088Z,15.50
2023-05-13T11:54:53.592Z,15.44
2023-05-13T11:57:28.298Z,15.25
2023-05-13T11:59:58.717Z,15.30
2023-05-13T12:02:28.165Z,14.78
2023-05-13T12:04:58.446Z,15.07
2023-05-13T12:07:26.851Z,15.02
2023-05-13T12:09:57.517Z,14.91
2023-05-13T12:12:25.766Z,15.26
2023-05-13T12:14:54.276Z,15.07
2023-05-13T12:17:22.084Z,15.66
2023-05-13T12:20:08.611Z,15.41
2023-05-13T12:22:37.148Z,15.69
2023-05-13T12:25:37.117Z,15.75
2023-05-13T12:28:22.758Z,15.26
2023-05-13T12:30:52.635Z,15.52
2023-05-13T12:33:24.100Z,15.09
2023-05-13T12:35:54.017Z,15.79
2023-05-13T12:38:24.129Z,15.74
2023-05-13T12:40:53.141Z,15.57
2023-05-13T12:43:20.671Z,15.36
2023-05-13T12:45:53.979Z,15.57
2023-05-13T12:48:24.213Z,15.55
2023-05-13T12:50:51.678Z,15.09
2023-05-13T12:53:19.119Z,15.02
2023-05-13T12:55:46.882Z,15.45
2023-05-13T12:58:14.357Z,15.47
2023-05-13T13:00:42.094Z,15.48
2023-05-13T13:03:10.009Z,15.14
2023-05-13T13:05:37.686Z,15.57
2023-05-13T13:08:05.490Z,15.55
2023-05-13T13:10:33.295Z,15.63
2023-05-13T13:13:00.707Z,15.83
2023-05-13T13:15:28.236Z,15.33
2023-05-13T13:17:56.038Z,15.57
2023-05-13T13:20:23.625Z,16.11
2023-05-13T13:22:51.087Z,15.46
2023-05-13T13:25:18.940Z,15.09
2023-05-13T13:27:46.495Z,15.89
2023-05-13T13:30:14.616Z,15.67
2023-05-13T13:32:42.365Z,15.77
2023-05-13T13:35:10.186Z,15.83
2023-05-13T13:37:38.123Z,15.94
2023-05-13T13:40:06.501Z,16.03
2023-05-13T13:45:09.109Z,14.95
2023-05-13T13:47:36.642Z,15.69
2023-05-13T13:50:04.604Z,15.98
2023-05-13T13:52:32.558Z,15.70
2023-05-13T13:55:00.466Z,15.88
2023-05-13T13:57:27.981Z,15.68
2023-05-13T13:59:55.767Z,15.53
2023-05-13T14:02:23.515Z,15.94
2023-05-13T14:04:52.283Z,16.29
2023-05-13T14:07:20.253Z,16.10
2023-05-13T14:09:48.578Z,16.19
2023-05-13T14:12:16.376Z,15.54
2023-05-13T14:14:43.790Z,15.95
2023-05-13T14:17:12.348Z,15.96
2023-05-13T14:19:42.444Z,16.35
2023-05-13T14:22:09.970Z,16.36
2023-05-13T14:24:37.404Z,16.52
2023-05-13T14:27:05.630Z,16.82
2023-05-13T14:29:33.219Z,16.68
2023-05-13T14:32:03.054Z,16.29
2023-05-13T14:34:30.794Z,15.71
2023-05-13T14:36:58.233Z,15.85
2023-05-13T14:39:25.628Z,15.91
2023-05-13T14:41:53.314Z,16.04
2023-05-13T14:44:20.774Z,15.12
2023-05-13T14:46:48.337Z,15.67
2023-05-13T14:49:16.296Z,15.70
2023-05-13T14:51:43.940Z,16.02
2023-05-13T14:54:11.419Z,15.83
2023-05-13T14:56:39.099Z,16.14
2023-05-13T14:59:06.559Z,16.27
2023-05-13T15:01:34.266Z,15.99
2023-05-13T15:04:02.258Z,16.12
2023-05-13T15:06:29.738Z,16.16
2023-05-13T15:08:57.485Z,15.95
2023-05-13T15:11:27.746Z,16.34
2023-05-13T15:13:55.572Z,16.23
2023-05-13T15:16:23.103Z,16.02
2023-05-13T15:18:50.920Z,15.82
2023-05-13T15:21:18.491Z,15.57
2023-05-13T15:23:45.938Z,15.79
2023-05-13T15:26:13.805Z,15.89
2023-05-13T15:28:41.236Z,16.13
2023-05-13T15:31:08.795Z,16.14
2023-05-13T15:33:36.599Z,16.26
2023-05-13T15:36:05.741Z,16.16
2023-05-13T15:38:33.193Z,15.40
2023-05-13T15:41:02.789Z,15.78
2023-05-13T15:43:32.071Z,16.07
2023-05-13T15:46:00.301Z,15.90
2023-05-13T15:48:29.488Z,16.21
2023-05-13T15:50:56.980Z,16.33
2023-05-13T15:53:24.474Z,16.40
2023-05-13T15:55:52.972Z,15.82
2023-05-13T15:58:20.514Z,15.32
2023-05-13T16:00:47.986Z,15.38
2023-05-13T16:03:17.067Z,15.71
2023-05-13T16:05:45.961Z,15.72
2023-05-13T16:08:13.432Z,16.10
2023-05-13T16:10:41.174Z,15.43
2023-05-13T16:13:08.897Z,16.03
2023-05-13T16:15:36.319Z,16.17
2023-05-13T16:18:04.276Z,16.21
2023-05-13T16:20:31.685Z,16.31
2023-05-13T16:22:59.287Z,16.40
2023-05-13T16:25:27.302Z,16.05
2023-05-13T16:27:56.602Z,16.08
2023-05-13T16:30:24.280Z,15.74
2023-05-13T16:32:55.033Z,16.26
2023-05-13T16:35:22.748Z,16.35
2023-05-13T16:37:50.592Z,15.98
2023-05-13T16:40:18.374Z,16.11
2023-05-13T16:42:46.525Z,16.19
2023-05-13T16:45:14.056Z,16.53
2023-05-13T16:47:41.865Z,16.53
2023-05-13T16:50:09.821Z,16.53
2023-05-13T16:52:37.294Z,16.53
2023-05-13T16:55:05.812Z,16.30
2023-05-13T16:57:33.309Z,16.36
2023-05-13T17:00:00.800Z,16.50
2023-05-13T17:02:28.688Z,16.73
2023-05-13T17:04:56.212Z,16.48
2023-05-13T17:07:23.725Z,16.17
2023-05-13T17:09:51.430Z,15.92
2023-05-13T17:12:18.879Z,15.84
2023-05-13T17:14:46.323Z,16.42
2023-05-13T17:17:14.195Z,16.09
2023-05-13T17:19:42.431Z,16.43
2023-05-13T17:22:09.991Z,16.50
2023-05-13T17:24:38.572Z,16.29
2023-05-13T17:27:06.543Z,16.27
2023-05-13T17:29:33.996Z,16.46
2023-05-13T17:32:01.756Z,16.02
2023-05-13T17:34:29.253Z,16.23
2023-05-13T17:36:56.707Z,15.58
2023-05-13T17:39:24.487Z,16.10
2023-05-13T17:41:52.160Z,16.41
2023-05-13T17:44:20.129Z,15.99
2023-05-13T17:46:48.063Z,15.87
2023-05-13T17:49:15.748Z,16.19
2023-05-13T17:51:43.296Z,16.09
2023-05-13T17:54:11.501Z,16.16
2023-05-13T17:56:38.993Z,16.14
2023-05-13T17:59:07.421Z,16.49
2023-05-13T18:01:35.223Z,16.42
2023-05-13T18:04:03.009Z,15.85
2023-05-13T18:06:31.196Z,16.37
2023-05-13T18:08:58.804Z,16.53
2023-05-13T18:11:26.720Z,16.15
2023-05-13T18:13:54.127Z,16.24
2023-05-13T18:16:21.709Z,15.86
2023-05-13T18:18:49.517Z,16.26
2023-05-13T18:21:17.057Z,16.34
2023-05-13T18:23:46.140Z,16.49
2023-05-13T18:26:13.856Z,16.63
2023-05-13T18:28:41.756Z,16.71
2023-05-13T18:31:09.239Z,16.80
2023-05-13T18:33:37.000Z,16.75
2023-05-13T18:36:04.750Z,16.84
2023-05-13T18:38:32.239Z,16.90
2023-05-13T18:41:03.235Z,16.99
2023-05-13T18:43:30.784Z,17.07
2023-05-13T18:45:58.465Z,17.16
2023-05-13T18:48:26.338Z,17.18
2023-05-13T18:50:53.915Z,17.16
2023-05-13T18:53:21.700Z,17.20
2023-05-13T18:55:49.634Z,17.24
2023-05-13T18:58:17.336Z,17.10
2023-05-13T19:00:44.870Z,17.07
2023-05-13T19:03:12.825Z,17.14
2023-05-13T19:05:40.317Z,17.08
2023-05-13T19:08:09.043Z,17.23
2023-05-13T19:10:39.674Z,17.28
2023-05-13T19:13:08.002Z,17.26
2023-05-13T19:15:35.686Z,17.16
2023-05-13T19:18:03.486Z,17.19
2023-05-13T19:20:31.224Z,17.15
2023-05-13T19:22:58.695Z,17.00
2023-05-13T19:25:26.429Z,17.08
2023-05-13T19:27:54.232Z,16.55
2023-05-13T19:30:21.945Z,16.60
2023-05-13T19:32:50.838Z,15.99
2023-05-13T19:35:18.336Z,15.80
2023-05-13T19:37:45.775Z,15.59
2023-05-13T19:40:13.571Z,16.35
2023-05-13T19:42:41.372Z,16.55
2023-05-13T19:45:10.677Z,16.22
2023-05-13T19:47:38.756Z,16.28
2023-05-13T19:50:06.625Z,16.46
2023-05-13T19:52:34.105Z,16.15
2023-05-13T19:55:01.867Z,15.58
2023-05-13T19:57:30.173Z,16.03
2023-05-13T19:59:58.674Z,16.22
2023-05-13T20:02:26.427Z,16.33
2023-05-13T20:04:54.504Z,16.10
2023-05-13T20:07:21.992Z,16.39
2023-05-13T20:09:49.410Z,16.35
2023-05-13T20:12:17.211Z,16.47
2023-05-13T20:14:49.633Z,16.39
2023-05-13T20:17:21.455Z,16.22
2023-05-13T20:19:50.053Z,16.39
2023-05-13T20:22:18.939Z,16.37
2023-05-13T20:24:47.948Z,16.48
2023-05-13T20:27:16.576Z,16.37
2023-05-13T20:29:46.923Z,16.20
2023-05-13T20:32:16.750Z,16.30
2023-05-13T20:34:44.872Z,16.46
2023-05-13T20:37:12.442Z,16.37
2023-05-13T20:39:39.882Z,16.12
2023-05-13T20:42:07.874Z,15.99
2023-05-13T20:44:35.483Z,15.59
2023-05-13T20:47:03.313Z,15.90
2023-05-13T20:49:31.426Z,15.89
2023-05-13T20:52:03.667Z,15.77
2023-05-13T20:54:31.590Z,15.83
2023-05-13T20:57:01.116Z,15.72
2023-05-13T20:59:28.593Z,15.78
2023-05-13T21:01:56.400Z,15.81
2023-05-13T21:04:25.505Z,15.73
2023-05-13T21:06:53.149Z,15.41
2023-05-13T21:09:20.905Z,15.50
2023-05-13T21:11:48.361Z,15.42
2023-05-13T21:14:16.019Z,15.38
2023-05-13T21:16:43.857Z,15.69
2023-05-13T21:19:24.382Z,15.63
2023-05-13T21:21:52.134Z,15.55
2023-05-13T21:24:19.835Z,15.60
2023-05-13T21:26:49.148Z,15.70
2023-05-13T21:29:18.898Z,15.75
2023-05-13T21:31:47.480Z,15.71
2023-05-13T21:34:15.057Z,15.94
2023-05-13T21:36:42.795Z,15.98
2023-05-13T21:39:10.602Z,15.97
2023-05-13T21:41:38.118Z,16.00
2023-05-13T21:44:06.167Z,15.96
2023-05-13T21:46:33.641Z,15.76
2023-05-13T21:49:01.607Z,15.79
2023-05-13T21:51:29.540Z,15.71
2023-05-13T21:53:56.921Z,15.53
2023-05-13T21:56:24.368Z,15.51
2023-05-13T21:58:52.050Z,15.44
2023-05-13T22:01:19.674Z,15.52
2023-05-13T22:03:47.395Z,15.30
2023-05-13T22:06:14.790Z,15.07
2023-05-13T22:08:42.229Z,15.08
2023-05-13T22:11:11.354Z,14.56
2023-05-13T22:13:38.858Z,14.95
2023-05-13T22:16:06.553Z,14.76
2023-05-13T22:18:34.506Z,15.04
2023-05-13T22:21:02.204Z,15.04
2023-05-13T22:23:29.716Z,14.95
2023-05-13T22:25:57.472Z,14.93
2023-05-13T22:28:25.025Z,14.78
2023-05-13T22:30:52.448Z,14.55
2023-05-13T22:33:20.155Z,14.89
2023-05-13T22:35:47.798Z,14.78
2023-05-13T22:38:15.260Z,14.79
2023-05-13T22:40:43.013Z,14.40
2023-05-13T22:43:10.573Z,14.70
2023-05-13T22:45:38.097Z,14.15
2023-05-13T22:48:06.135Z,13.96
2023-05-13T22:50:33.639Z,14.40
2023-05-13T22:53:01.120Z,14.33
2023-05-13T22:55:28.841Z,14.41
2023-05-13T22:57:56.211Z,14.50
2023-05-13T23:00:23.896Z,14.49
2023-05-13T23:02:51.774Z,14.50
2023-05-13T23:05:19.264Z,14.37
2023-05-13T23:07:46.803Z,14.42
2023-05-13T23:10:14.520Z,14.52
2023-05-13T23:12:41.982Z,14.33
2023-05-13T23:15:11.666Z,14.33
2023-05-13T23:17:39.596Z,14.61
2023-05-13T23:20:07.578Z,14.49
2023-05-13T23:22:35.302Z,14.09
2023-05-13T23:25:03.734Z,14.41
2023-05-13T23:27:31.836Z,14.47
2023-05-13T23:29:59.673Z,14.35
2023-05-13T23:32:27.378Z,14.08
2023-05-13T23:34:54.938Z,14.27
2023-05-13T23:37:22.543Z,14.26
2023-05-13T23:39:50.265Z,14.59
2023-05-13T23:42:17.663Z,14.51
2023-05-13T23:44:45.105Z,14.51
2023-05-13T23:47:13.549Z,14.48
2023-05-13T23:49:41.083Z,14.57
2023-05-13T23:52:08.537Z,14.37
2023-05-13T23:54:36.307Z,14.31
2023-05-13T23:57:03.992Z,14.39
2023-05-13T23:59:31.442Z,14.46
